createdAt,value
2017-01-13T00:00:24.522Z,2.33
2017-01-13T00:01:10.510Z,2.31
2017-01-13T00:01:52.298Z,2.35
2017-01-13T00:02:35.305Z,2.31
2017-01-13T00:03:20.326Z,2.33
2017-01-13T00:04:02.381Z,2.29
2017-01-13T00:04:48.288Z,2.28
2017-01-13T00:05:32.287Z,2.29
2017-01-13T00:06:13.297Z,2.35
2017-01-13T00:06:57.374Z,2.29
2017-01-13T00:08:04.458Z,2.28
2017-01-13T00:09:00.300Z,2.35
2017-01-13T00:09:43.677Z,2.31
2017-01-13T00:10:28.353Z,2.35
2017-01-13T00:11:09.693Z,2.36
2017-01-13T00:11:55.804Z,2.39
2017-01-13T00:12:38.892Z,2.36
2017-01-13T00:13:22.805Z,2.35
2017-01-13T00:14:04.068Z,2.33
2017-01-13T00:14:48.847Z,2.33
2017-01-13T00:15:30.799Z,2.38
2017-01-13T00:16:13.798Z,2.39
2017-01-13T00:16:54.817Z,2.38
2017-01-13T00:17:38.890Z,2.36
2017-01-13T00:18:28.804Z,2.39
2017-01-13T00:19:09.966Z,2.43
2017-01-13T00:19:53.314Z,2.42
2017-01-13T00:20:35.308Z,2.38
2017-01-13T00:24:26.094Z,2.38
2017-01-13T00:25:10.041Z,2.36
2017-01-13T00:26:52.358Z,2.44
2017-01-13T00:27:38.787Z,2.51
2017-01-13T00:28:20.207Z,2.54
2017-01-13T00:29:01.293Z,2.56
2017-01-13T00:29:43.590Z,2.53
2017-01-13T00:30:26.596Z,2.6
2017-01-13T00:31:07.679Z,2.54
2017-01-13T00:31:48.130Z,2.49
2017-01-13T00:32:31.229Z,2.51
2017-01-13T00:33:14.505Z,2.47
2017-01-13T00:33:55.592Z,2.51
2017-01-13T00:34:36.893Z,2.57
2017-01-13T00:35:18.266Z,2.57
2017-01-13T00:36:01.483Z,2.62
2017-01-13T00:36:44.527Z,2.65
2017-01-13T00:37:26.487Z,2.6
2017-01-13T00:38:06.995Z,2.62
2017-01-13T00:38:51.075Z,2.67
2017-01-13T00:39:31.563Z,2.62
2017-01-13T00:40:15.709Z,2.65
2017-01-13T00:41:06.489Z,2.71
2017-01-13T00:41:46.953Z,2.56
2017-01-13T00:42:28.043Z,2.72
2017-01-13T00:43:10.101Z,2.74
2017-01-13T00:43:57.000Z,2.67
2017-01-13T00:44:41.061Z,2.74
2017-01-13T00:45:23.103Z,2.74
2017-01-13T00:46:07.001Z,2.65
2017-01-13T00:46:48.246Z,2.64
2017-01-13T00:47:31.184Z,2.68
2017-01-13T00:48:16.115Z,2.65
2017-01-13T00:49:00.117Z,2.67
2017-01-13T00:49:46.001Z,2.71
2017-01-13T00:50:30.108Z,2.68
2017-01-13T00:51:13.046Z,2.68
2017-01-13T00:51:57.162Z,2.65
2017-01-13T00:52:38.283Z,2.75
2017-01-13T00:53:19.698Z,2.79
2017-01-13T00:54:03.592Z,2.69
2017-01-13T00:54:57.601Z,2.8
2017-01-13T00:55:39.518Z,2.69
2017-01-13T00:56:23.497Z,2.71
2017-01-13T00:57:04.264Z,2.77
2017-01-13T00:57:47.182Z,2.74
2017-01-13T00:58:33.043Z,2.74
2017-01-13T00:59:20.094Z,2.75
2017-01-13T01:00:02.155Z,2.74
2017-01-13T01:00:45.085Z,2.74
2017-01-13T01:01:25.596Z,2.8
2017-01-13T01:02:06.599Z,2.77
2017-01-13T01:02:49.504Z,2.75
2017-01-13T01:03:31.804Z,2.69
2017-01-13T01:04:17.278Z,2.77
2017-01-13T01:04:58.699Z,2.75
2017-01-13T01:05:42.612Z,2.74
2017-01-13T01:06:24.878Z,2.75
2017-01-13T01:07:06.251Z,2.74
2017-01-13T01:07:48.230Z,2.86
2017-01-13T01:08:32.099Z,2.83
2017-01-13T01:09:18.071Z,2.79
2017-01-13T01:10:00.176Z,2.89
2017-01-13T01:10:41.439Z,2.83
2017-01-13T01:11:21.907Z,2.86
2017-01-13T01:12:05.019Z,2.79
2017-01-13T01:12:48.024Z,2.86
2017-01-13T01:13:32.114Z,2.85
2017-01-13T01:14:16.104Z,2.89
2017-01-13T01:14:56.571Z,2.89
2017-01-13T01:15:38.517Z,2.9
2017-01-13T01:16:20.618Z,2.95
2017-01-13T01:17:01.754Z,2.92
2017-01-13T01:17:44.019Z,2.82
2017-01-13T01:18:36.165Z,2.89
2017-01-13T01:19:16.641Z,2.95
2017-01-13T01:20:01.528Z,2.9
2017-01-13T01:20:44.519Z,2.89
2017-01-13T01:21:33.509Z,2.89
2017-01-13T01:22:15.767Z,2.89
2017-01-13T01:22:56.279Z,2.89
2017-01-13T01:23:37.296Z,2.92
2017-01-13T01:24:19.106Z,2.9
2017-01-13T01:25:04.102Z,2.89
2017-01-13T01:25:48.014Z,2.89
2017-01-13T01:26:33.017Z,2.9
2017-01-13T01:27:20.041Z,2.89
2017-01-13T01:28:03.288Z,2.9
2017-01-13T01:29:00.039Z,2.93
2017-01-13T01:29:43.185Z,2.85
2017-01-13T01:30:30.013Z,2.9
2017-01-13T01:31:12.068Z,2.92
2017-01-13T01:31:53.283Z,2.92
2017-01-13T01:32:37.260Z,2.93
2017-01-13T01:33:30.117Z,2.85
2017-01-13T01:34:11.390Z,2.89
2017-01-13T01:34:54.245Z,2.97
2017-01-13T01:35:36.978Z,2.86
2017-01-13T01:36:18.205Z,2.89
2017-01-13T01:36:58.688Z,2.89
2017-01-13T01:37:39.156Z,2.9
2017-01-13T01:38:20.180Z,2.89
2017-01-13T01:39:01.281Z,2.89
2017-01-13T01:39:42.281Z,2.95
2017-01-13T01:40:23.615Z,2.95
2017-01-13T01:41:05.159Z,2.86
2017-01-13T01:41:46.515Z,2.97
2017-01-13T01:42:29.511Z,2.9
2017-01-13T01:43:12.670Z,2.97
2017-01-13T01:43:59.682Z,3
2017-01-13T01:44:42.610Z,2.97
2017-01-13T01:45:23.801Z,2.95
2017-01-13T01:46:06.017Z,2.98
2017-01-13T01:46:51.002Z,2.86
2017-01-13T01:47:31.490Z,2.86
2017-01-13T01:48:17.600Z,2.95
2017-01-13T01:48:59.686Z,2.95
2017-01-13T01:49:42.774Z,3.04
2017-01-13T01:50:24.676Z,2.98
2017-01-13T01:51:05.865Z,3
2017-01-13T01:51:48.619Z,2.9
2017-01-13T01:52:33.625Z,3.03
2017-01-13T01:53:14.903Z,2.95
2017-01-13T01:53:56.503Z,2.98
2017-01-13T01:54:38.775Z,2.89
2017-01-13T01:55:20.091Z,2.97
2017-01-13T01:56:03.003Z,3.04
2017-01-13T01:56:46.022Z,3.01
2017-01-13T01:57:31.002Z,3.04
2017-01-13T01:58:12.213Z,3.03
2017-01-13T01:58:52.676Z,3.07
2017-01-13T01:59:35.608Z,3.08
2017-01-13T02:00:17.500Z,3.03
2017-01-13T02:01:01.568Z,3.04
2017-01-13T02:01:44.600Z,3.07
2017-01-13T02:02:32.502Z,3.05
2017-01-13T02:03:13.793Z,3.11
2017-01-13T02:03:55.984Z,3.13
2017-01-13T02:04:36.445Z,3.1
2017-01-13T02:05:16.926Z,3.03
2017-01-13T02:05:59.985Z,3.08
2017-01-13T02:06:42.085Z,2.98
2017-01-13T02:07:22.565Z,3.04
2017-01-13T02:08:04.524Z,3.08
2017-01-13T02:08:46.504Z,2.92
2017-01-13T02:09:27.905Z,2.89
2017-01-13T02:10:09.886Z,2.89
2017-01-13T02:10:51.238Z,2.89
2017-01-13T02:11:32.382Z,2.89
2017-01-13T02:12:12.881Z,2.92
2017-01-13T02:12:58.581Z,3.01
2017-01-13T02:13:39.060Z,2.98
2017-01-13T02:14:22.263Z,2.93
2017-01-13T02:15:02.754Z,2.98
2017-01-13T02:15:44.481Z,2.9
2017-01-13T02:16:26.504Z,3.01
2017-01-13T02:17:09.491Z,3
2017-01-13T02:17:52.496Z,3.04
2017-01-13T02:18:39.702Z,3.03
2017-01-13T02:19:21.517Z,2.89
2017-01-13T02:20:01.991Z,2.98
2017-01-13T02:20:44.999Z,3.03
2017-01-13T02:21:26.078Z,3.01
2017-01-13T02:22:08.487Z,3.01
2017-01-13T02:22:51.610Z,3.03
2017-01-13T02:23:34.502Z,3.01
2017-01-13T02:24:14.999Z,3.08
2017-01-13T02:24:55.446Z,3.05
2017-01-13T02:25:37.638Z,3.05
2017-01-13T02:26:18.665Z,3.1
2017-01-13T02:27:01.524Z,3.04
2017-01-13T02:27:44.499Z,3.07
2017-01-13T02:28:27.689Z,3.03
2017-01-13T02:29:09.751Z,3.05
2017-01-13T02:29:52.571Z,3.08
2017-01-13T02:30:33.039Z,3.1
2017-01-13T02:31:14.108Z,3.11
2017-01-13T02:31:55.259Z,3.07
2017-01-13T02:32:35.737Z,3.08
2017-01-13T02:33:16.254Z,3.08
2017-01-13T02:33:56.728Z,3.1
2017-01-13T02:34:39.084Z,3.14
2017-01-13T02:35:22.006Z,3.11
2017-01-13T02:36:04.000Z,3.08
2017-01-13T02:36:45.379Z,3.11
2017-01-13T02:37:28.386Z,3.19
2017-01-13T02:38:09.521Z,3.19
2017-01-13T02:38:52.601Z,3.11
2017-01-13T02:39:34.093Z,3.11
2017-01-13T02:40:17.084Z,3.16
2017-01-13T02:40:58.514Z,3.21
2017-01-13T02:41:38.968Z,3.19
2017-01-13T02:42:23.287Z,3.08
2017-01-13T02:43:05.272Z,3.1
2017-01-13T02:43:47.159Z,3.07
2017-01-13T02:44:27.642Z,3.14
2017-01-13T02:45:08.765Z,3.08
2017-01-13T02:45:50.002Z,3.18
2017-01-13T02:46:32.021Z,3.18
2017-01-13T02:47:14.254Z,3.14
2017-01-13T02:47:55.412Z,3.18
2017-01-13T02:48:39.506Z,3.14
2017-01-13T02:49:20.015Z,3.22
2017-01-13T02:50:00.496Z,3.16
2017-01-13T02:50:42.027Z,3.18
2017-01-13T02:51:25.511Z,3.28
2017-01-13T02:52:06.118Z,3.18
2017-01-13T02:52:48.087Z,3.19
2017-01-13T02:53:29.595Z,3.16
2017-01-13T02:54:13.520Z,3.18
2017-01-13T02:54:54.580Z,3.32
2017-01-13T02:55:39.559Z,3.29
2017-01-13T02:56:20.511Z,3.28
2017-01-13T02:57:04.583Z,3.22
2017-01-13T02:57:47.582Z,3.19
2017-01-13T02:58:29.500Z,3.19
2017-01-13T02:59:10.687Z,3.19
2017-01-13T02:59:51.200Z,3.21
2017-01-13T03:00:33.142Z,3.21
2017-01-13T03:01:15.077Z,3.16
2017-01-13T03:01:59.083Z,3.21
2017-01-13T03:02:40.182Z,3.16
2017-01-13T03:03:21.149Z,3.23
2017-01-13T03:04:04.006Z,3.21
2017-01-13T03:04:49.004Z,3.25
2017-01-13T03:05:33.022Z,3.23
2017-01-13T03:06:14.167Z,3.19
2017-01-13T03:06:57.178Z,3.18
2017-01-13T03:07:42.033Z,3.21
2017-01-13T03:08:22.486Z,3.22
2017-01-13T03:09:04.502Z,3.18
2017-01-13T03:09:45.497Z,3.13
2017-01-13T03:10:28.594Z,3.21
2017-01-13T03:11:10.517Z,3.22
2017-01-13T03:11:51.605Z,3.22
2017-01-13T03:12:33.682Z,3.19
2017-01-13T03:13:16.084Z,3.32
2017-01-13T03:13:56.593Z,3.23
2017-01-13T03:14:38.622Z,3.29
2017-01-13T03:15:20.495Z,3.29
2017-01-13T03:16:02.490Z,3.26
2017-01-13T03:16:42.977Z,3.32
2017-01-13T03:17:23.427Z,3.32
2017-01-13T03:18:05.602Z,3.34
2017-01-13T03:18:47.715Z,3.28
2017-01-13T03:19:28.905Z,3.36
2017-01-13T03:20:09.384Z,3.26
2017-01-13T03:20:54.009Z,3.25
2017-01-13T03:21:34.481Z,3.34
2017-01-13T03:22:16.589Z,3.29
2017-01-13T03:22:59.592Z,3.32
2017-01-13T03:23:40.894Z,3.26
2017-01-13T03:24:21.906Z,3.25
2017-01-13T03:25:04.181Z,3.32
2017-01-13T03:25:44.673Z,3.25
2017-01-13T03:26:38.572Z,3.26
2017-01-13T03:27:20.681Z,3.31
2017-01-13T03:28:03.500Z,3.31
2017-01-13T03:28:44.885Z,3.26
2017-01-13T03:29:26.097Z,3.21
2017-01-13T03:30:08.260Z,3.19
2017-01-13T03:30:48.799Z,3.25
2017-01-13T03:31:29.284Z,3.25
2017-01-13T03:32:09.772Z,3.29
2017-01-13T03:32:50.253Z,3.25
2017-01-13T03:33:34.091Z,3.31
2017-01-13T03:34:15.497Z,3.25
2017-01-13T03:34:56.000Z,3.22
2017-01-13T03:35:36.485Z,3.18
2017-01-13T03:36:20.604Z,3.19
2017-01-13T03:37:01.885Z,3.18
2017-01-13T03:37:42.357Z,3.22
2017-01-13T03:38:23.683Z,3.22
2017-01-13T03:39:04.263Z,3.18
2017-01-13T03:39:44.742Z,3.18
2017-01-13T03:40:26.504Z,3.19
2017-01-13T03:41:07.677Z,3.22
2017-01-13T03:41:48.142Z,3.21
2017-01-13T03:42:29.591Z,3.18
2017-01-13T03:43:10.049Z,3.28
2017-01-13T03:43:55.002Z,3.19
2017-01-13T03:44:35.483Z,3.18
2017-01-13T03:45:16.690Z,3.21
2017-01-13T03:45:57.142Z,3.14
2017-01-13T03:46:37.606Z,3.18
2017-01-13T03:47:18.112Z,3.23
2017-01-13T03:47:58.585Z,3.18
2017-01-13T03:48:39.044Z,3.21
2017-01-13T03:49:19.509Z,3.19
2017-01-13T03:49:59.964Z,3.22
2017-01-13T03:50:41.097Z,3.25
2017-01-13T03:51:22.183Z,3.18
2017-01-13T03:52:02.674Z,3.22
2017-01-13T03:52:43.138Z,3.21
2017-01-13T03:53:25.156Z,3.21
2017-01-13T03:54:06.995Z,3.21
2017-01-13T03:54:48.411Z,3.16
2017-01-13T03:55:28.890Z,3.28
2017-01-13T03:56:10.177Z,3.26
2017-01-13T03:56:50.657Z,3.28
2017-01-13T03:57:31.166Z,3.19
2017-01-13T03:58:12.596Z,3.29
2017-01-13T03:58:53.068Z,3.22
2017-01-13T03:59:35.074Z,3.28
2017-01-13T04:00:17.257Z,3.25
2017-01-13T04:00:57.714Z,3.36
2017-01-13T04:01:39.173Z,3.25
2017-01-13T04:02:19.645Z,3.29
2017-01-13T04:03:00.115Z,3.29
2017-01-13T04:03:40.632Z,3.32
2017-01-13T04:04:21.696Z,3.32
2017-01-13T04:05:02.158Z,3.23
2017-01-13T04:05:47.240Z,3.23
2017-01-13T04:06:27.743Z,3.18
2017-01-13T04:07:08.230Z,3.21
2017-01-13T04:07:48.689Z,3.21
2017-01-13T04:08:30.582Z,3.18
2017-01-13T04:09:11.601Z,3.14
2017-01-13T04:09:52.859Z,3.21
2017-01-13T04:10:33.346Z,3.19
2017-01-13T04:11:14.391Z,3.22
2017-01-13T04:11:55.503Z,3.16
2017-01-13T04:12:36.860Z,3.07
2017-01-13T04:13:17.354Z,3.1
2017-01-13T04:13:57.809Z,3.19
2017-01-13T04:14:38.997Z,3.14
2017-01-13T04:15:19.485Z,3.21
2017-01-13T04:16:02.489Z,3.21
2017-01-13T04:16:42.955Z,3.22
2017-01-13T04:17:24.250Z,3.14
2017-01-13T04:18:04.714Z,3.22
2017-01-13T04:18:46.787Z,3.23
2017-01-13T04:19:27.322Z,3.16
2017-01-13T04:20:07.786Z,3.23
2017-01-13T04:20:50.677Z,3.08
2017-01-13T04:21:32.580Z,3.13
2017-01-13T04:22:14.506Z,3.05
2017-01-13T04:22:54.968Z,3.1
2017-01-13T04:23:35.486Z,3.1
2017-01-13T04:24:16.031Z,3.11
2017-01-13T04:24:57.069Z,3.11
2017-01-13T04:25:37.557Z,3.14
2017-01-13T04:26:19.024Z,3.16
2017-01-13T04:26:59.476Z,3.1
2017-01-13T04:27:40.007Z,3.1
2017-01-13T04:28:23.002Z,3.05
2017-01-13T04:29:04.261Z,3.1
2017-01-13T04:29:47.065Z,3.14
2017-01-13T04:30:27.564Z,3.05
2017-01-13T04:31:08.092Z,3.07
2017-01-13T04:31:49.301Z,3.11
2017-01-13T04:32:29.805Z,3.08
2017-01-13T04:33:10.261Z,3.18
2017-01-13T04:33:51.522Z,3.11
2017-01-13T04:34:32.592Z,3.08
2017-01-13T04:35:14.107Z,3.08
2017-01-13T04:35:54.558Z,3.11
2017-01-13T04:36:35.047Z,3.14
2017-01-13T04:37:16.386Z,3.18
2017-01-13T04:37:57.757Z,3.08
2017-01-13T04:38:40.012Z,3.19
2017-01-13T04:39:21.277Z,3.21
2017-01-13T04:40:01.769Z,3.14
2017-01-13T04:40:42.253Z,3.22
2017-01-13T04:41:23.683Z,3.25
2017-01-13T04:42:04.146Z,3.22
2017-01-13T04:42:44.651Z,3.22
2017-01-13T04:43:28.496Z,3.19
2017-01-13T04:44:10.666Z,3.22
2017-01-13T04:44:54.681Z,3.16
2017-01-13T04:45:35.158Z,3.19
2017-01-13T04:46:16.610Z,3.19
2017-01-13T04:46:57.084Z,3.25
2017-01-13T04:47:38.511Z,3.08
2017-01-13T04:48:20.760Z,3.18
2017-01-13T04:49:01.261Z,3.21
2017-01-13T04:49:43.985Z,3.21
2017-01-13T04:50:25.424Z,3.21
2017-01-13T04:51:05.923Z,3.26
2017-01-13T04:51:46.363Z,3.21
2017-01-13T04:52:26.864Z,3.21
2017-01-13T04:53:07.883Z,3.16
2017-01-13T04:53:48.359Z,3.16
2017-01-13T04:54:29.000Z,3.14
2017-01-13T04:55:09.290Z,3.14
2017-01-13T04:55:49.779Z,3.18
2017-01-13T04:56:31.171Z,3.21
2017-01-13T04:57:11.653Z,3.11
2017-01-13T04:57:53.996Z,3.08
2017-01-13T04:58:34.504Z,3.08
2017-01-13T04:59:15.003Z,3.14
2017-01-13T04:59:55.492Z,3.03
2017-01-13T05:00:35.929Z,3.1
2017-01-13T05:01:17.170Z,3.1
2017-01-13T05:01:57.679Z,3.19
2017-01-13T05:02:38.146Z,3.18
2017-01-13T05:03:19.176Z,3.05
2017-01-13T05:03:59.660Z,3.07
2017-01-13T05:04:40.153Z,3.08
2017-01-13T05:05:20.616Z,3.07
2017-01-13T05:06:02.091Z,3.05
2017-01-13T05:06:42.571Z,3.1
2017-01-13T05:07:23.590Z,3.1
2017-01-13T05:08:04.570Z,3.03
2017-01-13T05:08:45.066Z,3.07
2017-01-13T05:09:25.566Z,3.03
2017-01-13T05:10:06.016Z,3.04
2017-01-13T05:10:46.479Z,3.01
2017-01-13T05:11:27.039Z,2.98
2017-01-13T05:12:07.641Z,3
2017-01-13T05:12:48.907Z,3.03
2017-01-13T05:13:28.861Z,2.98
2017-01-13T05:14:09.621Z,3.01
2017-01-13T05:14:50.434Z,3.05
2017-01-13T05:15:31.192Z,3
2017-01-13T05:16:11.912Z,3.03
2017-01-13T05:16:52.410Z,3.04
2017-01-13T05:17:32.912Z,3.01
2017-01-13T05:18:13.391Z,2.89
2017-01-13T05:18:53.847Z,2.9
2017-01-13T05:19:34.345Z,2.98
2017-01-13T05:20:14.832Z,3.01
2017-01-13T05:20:55.311Z,3.01
2017-01-13T05:21:35.786Z,3.05
2017-01-13T05:22:16.271Z,3.01
2017-01-13T05:22:56.826Z,3.01
2017-01-13T05:23:37.337Z,2.92
2017-01-13T05:24:17.831Z,2.87
2017-01-13T05:24:58.312Z,2.9
2017-01-13T05:25:38.769Z,2.92
2017-01-13T05:26:19.257Z,2.87
2017-01-13T05:26:59.732Z,2.89
2017-01-13T05:27:40.224Z,2.86
2017-01-13T05:28:20.697Z,2.86
2017-01-13T05:29:01.189Z,2.89
2017-01-13T05:29:41.669Z,2.89
2017-01-13T05:30:22.156Z,2.85
2017-01-13T05:31:02.650Z,2.92
2017-01-13T05:31:43.127Z,2.82
2017-01-13T05:32:23.613Z,2.83
2017-01-13T05:33:04.115Z,2.82
2017-01-13T05:33:44.586Z,2.82
2017-01-13T05:34:25.051Z,2.77
2017-01-13T05:35:05.533Z,2.85
2017-01-13T05:35:46.031Z,2.8
2017-01-13T05:36:26.522Z,2.74
2017-01-13T05:37:07.024Z,2.77
2017-01-13T05:37:47.503Z,2.79
2017-01-13T05:38:27.996Z,2.77
2017-01-13T05:39:08.459Z,2.75
2017-01-13T05:39:48.928Z,2.75
2017-01-13T05:40:29.429Z,2.69
2017-01-13T05:41:09.916Z,2.75
2017-01-13T05:41:50.377Z,2.77
2017-01-13T05:42:30.936Z,2.72
2017-01-13T05:43:11.346Z,2.68
2017-01-13T05:43:51.853Z,2.69
2017-01-13T05:44:32.333Z,2.71
2017-01-13T05:45:12.814Z,2.69
2017-01-13T05:45:53.287Z,2.68
2017-01-13T05:46:33.798Z,2.71
2017-01-13T05:47:14.287Z,2.68
2017-01-13T05:47:54.822Z,2.69
2017-01-13T05:48:35.275Z,2.69
2017-01-13T05:49:15.751Z,2.67
2017-01-13T05:49:56.294Z,2.75
2017-01-13T05:50:36.776Z,2.72
2017-01-13T05:51:17.251Z,2.67
2017-01-13T05:51:57.735Z,2.71
2017-01-13T05:52:38.218Z,2.67
2017-01-13T05:53:18.706Z,2.64
2017-01-13T05:53:59.211Z,2.62
2017-01-13T05:54:39.691Z,2.68
2017-01-13T05:55:20.182Z,2.71
2017-01-13T05:56:00.663Z,2.74
2017-01-13T05:56:41.147Z,2.62
2017-01-13T05:57:21.604Z,2.64
2017-01-13T05:58:02.099Z,2.62
2017-01-13T05:58:42.574Z,2.64
2017-01-13T05:59:23.055Z,2.67
2017-01-13T06:00:03.549Z,2.69
2017-01-13T06:00:44.030Z,2.71
2017-01-13T06:01:24.480Z,2.72
2017-01-13T06:02:04.970Z,2.67
2017-01-13T06:02:45.497Z,2.69
2017-01-13T06:03:26.006Z,2.69
2017-01-13T06:04:06.474Z,2.64
2017-01-13T06:04:46.954Z,2.69
2017-01-13T06:05:27.415Z,2.62
2017-01-13T06:06:07.901Z,2.74
2017-01-13T06:06:48.364Z,2.67
2017-01-13T06:07:28.870Z,2.71
2017-01-13T06:08:09.360Z,2.65
2017-01-13T06:08:49.804Z,2.68
2017-01-13T06:09:30.283Z,2.69
2017-01-13T06:10:10.768Z,2.65
2017-01-13T06:10:51.252Z,2.69
2017-01-13T06:11:31.721Z,2.67
2017-01-13T06:12:12.175Z,2.64
2017-01-13T06:12:52.684Z,2.62
2017-01-13T06:13:33.183Z,2.64
2017-01-13T06:14:13.686Z,2.71
2017-01-13T06:14:54.173Z,2.71
2017-01-13T06:15:34.652Z,2.64
2017-01-13T06:16:15.129Z,2.64
2017-01-13T06:16:55.607Z,2.62
2017-01-13T06:17:36.100Z,2.67
2017-01-13T06:18:16.768Z,2.64
2017-01-13T06:18:57.575Z,2.64
2017-01-13T06:19:38.262Z,2.61
2017-01-13T06:20:18.973Z,2.61
2017-01-13T06:20:59.711Z,2.61
2017-01-13T06:21:40.165Z,2.67
2017-01-13T06:22:20.644Z,2.56
2017-01-13T06:23:01.133Z,2.56
2017-01-13T06:23:41.610Z,2.62
2017-01-13T06:24:22.087Z,2.65
2017-01-13T06:25:02.609Z,2.56
2017-01-13T06:25:43.074Z,2.6
2017-01-13T06:26:23.545Z,2.57
2017-01-13T06:27:04.031Z,2.6
2017-01-13T06:27:44.515Z,2.57
2017-01-13T06:28:24.992Z,2.57
2017-01-13T06:29:05.490Z,2.47
2017-01-13T06:29:46.010Z,2.5
2017-01-13T06:30:26.409Z,2.56
2017-01-13T06:31:06.887Z,2.5
2017-01-13T06:31:47.391Z,2.5
2017-01-13T06:32:27.858Z,2.46
2017-01-13T06:33:08.342Z,2.46
2017-01-13T06:33:48.838Z,2.43
2017-01-13T06:34:29.332Z,2.47
2017-01-13T06:35:09.830Z,2.47
2017-01-13T06:35:50.329Z,2.47
2017-01-13T06:36:30.841Z,2.5
2017-01-13T06:37:11.323Z,2.49
2017-01-13T06:37:51.881Z,2.53
2017-01-13T06:38:32.277Z,2.54
2017-01-13T06:39:12.754Z,2.46
2017-01-13T06:39:53.223Z,2.51
2017-01-13T06:40:33.728Z,2.51
2017-01-13T06:41:14.194Z,2.53
2017-01-13T06:41:54.683Z,2.6
2017-01-13T06:42:35.146Z,2.5
2017-01-13T06:43:15.662Z,2.53
2017-01-13T06:43:56.147Z,2.53
2017-01-13T06:44:36.753Z,2.49
2017-01-13T06:45:18.468Z,2.5
2017-01-13T06:45:58.845Z,2.47
2017-01-13T06:46:39.350Z,2.38
2017-01-13T06:47:19.836Z,2.47
2017-01-13T06:48:00.334Z,2.42
2017-01-13T06:48:40.820Z,2.39
2017-01-13T06:49:21.327Z,2.38
2017-01-13T06:50:01.749Z,2.36
2017-01-13T06:50:42.215Z,2.32
2017-01-13T06:51:22.707Z,2.39
2017-01-13T06:52:03.187Z,2.33
2017-01-13T06:52:43.670Z,2.32
2017-01-13T06:53:24.115Z,2.32
2017-01-13T06:54:04.594Z,2.33
2017-01-13T06:54:45.101Z,2.28
2017-01-13T06:55:25.572Z,2.28
2017-01-13T06:56:06.133Z,2.26
2017-01-13T06:56:46.627Z,2.22
2017-01-13T06:57:27.093Z,2.2
2017-01-13T06:58:07.562Z,2.26
2017-01-13T06:58:48.031Z,2.26
2017-01-13T06:59:28.522Z,2.25
2017-01-13T07:00:09.101Z,2.24
2017-01-13T07:00:49.586Z,2.25
2017-01-13T07:01:30.122Z,2.22
2017-01-13T07:02:10.587Z,2.2
2017-01-13T07:02:51.073Z,2.25
2017-01-13T07:03:31.538Z,2.18
2017-01-13T07:04:12.070Z,2.25
2017-01-13T07:04:52.568Z,2.24
2017-01-13T07:05:33.049Z,2.25
2017-01-13T07:06:14.520Z,2.17
2017-01-13T07:06:54.996Z,2.17
2017-01-13T07:07:35.468Z,2.17
2017-01-13T07:08:15.964Z,2.15
2017-01-13T07:08:56.417Z,2.11
2017-01-13T07:09:36.913Z,2.11
2017-01-13T07:10:17.403Z,2.11
2017-01-13T07:10:57.858Z,2.13
2017-01-13T07:11:38.279Z,2.14
2017-01-13T07:12:18.821Z,2.11
2017-01-13T07:12:59.225Z,2.13
2017-01-13T07:13:39.724Z,2.11
2017-01-13T07:14:20.229Z,2.14
2017-01-13T07:15:00.703Z,2.14
2017-01-13T07:15:41.199Z,2.11
2017-01-13T07:16:21.628Z,2.11
2017-01-13T07:17:02.092Z,2.15
2017-01-13T07:17:42.577Z,2.17
2017-01-13T07:18:23.018Z,2.1
2017-01-13T07:19:03.506Z,2.13
2017-01-13T07:20:54.890Z,2.06
2017-01-13T07:21:38.858Z,2.06
2017-01-13T07:22:19.477Z,1.97
2017-01-13T07:22:59.943Z,1.92
2017-01-13T07:23:40.417Z,1.89
2017-01-13T07:24:20.887Z,1.84
2017-01-13T07:25:01.382Z,1.92
2017-01-13T07:25:41.842Z,1.92
2017-01-13T07:26:22.374Z,1.88
2017-01-13T07:27:02.932Z,1.88
2017-01-13T07:27:43.432Z,1.87
2017-01-13T07:28:23.869Z,1.85
2017-01-13T07:29:04.352Z,1.8
2017-01-13T07:29:44.813Z,1.81
2017-01-13T07:30:25.283Z,1.74
2017-01-13T07:31:05.754Z,1.76
2017-01-13T07:31:46.308Z,1.84
2017-01-13T07:32:26.768Z,1.76
2017-01-13T07:33:07.234Z,1.74
2017-01-13T07:33:47.711Z,1.67
2017-01-13T07:34:28.155Z,1.6
2017-01-13T07:35:08.716Z,1.74
2017-01-13T07:35:49.403Z,1.67
2017-01-13T07:36:30.517Z,1.71
2017-01-13T07:37:11.283Z,1.71
2017-01-13T07:37:51.803Z,1.62
2017-01-13T07:38:32.289Z,1.62
2017-01-13T07:39:13.310Z,1.66
2017-01-13T07:39:53.866Z,1.63
2017-01-13T07:40:34.308Z,1.62
2017-01-13T07:41:14.847Z,1.67
2017-01-13T07:41:55.597Z,1.63
2017-01-13T07:42:36.088Z,1.62
2017-01-13T07:43:16.559Z,1.66
2017-01-13T07:43:57.086Z,1.68
2017-01-13T07:44:37.529Z,1.58
2017-01-13T07:45:18.614Z,1.58
2017-01-13T07:45:58.998Z,1.55
2017-01-13T07:46:39.543Z,1.6
2017-01-13T07:47:19.943Z,1.49
2017-01-13T07:48:00.433Z,1.49
2017-01-13T07:48:40.938Z,1.44
2017-01-13T07:49:21.401Z,1.45
2017-01-13T07:50:01.851Z,1.44
2017-01-13T07:50:42.456Z,1.4
2017-01-13T07:51:22.834Z,1.34
2017-01-13T07:52:03.921Z,1.35
2017-01-13T07:52:44.433Z,1.31
2017-01-13T07:53:24.904Z,1.34
2017-01-13T07:54:05.353Z,1.19
2017-01-13T07:54:45.878Z,1.31
2017-01-13T07:55:26.427Z,1.24
2017-01-13T07:56:07.047Z,1.24
2017-01-13T07:56:47.569Z,1.19
2017-01-13T07:57:28.129Z,1.23
2017-01-13T07:58:08.630Z,1.26
2017-01-13T07:58:49.125Z,1.22
2017-01-13T07:59:29.580Z,1.26
2017-01-13T08:00:10.062Z,1.17
2017-01-13T08:00:50.563Z,1.24
2017-01-13T08:01:31.037Z,1.2
2017-01-13T08:02:11.502Z,1.16
2017-01-13T08:02:51.989Z,1.12
2017-01-13T08:03:32.494Z,1.1
2017-01-13T08:04:13.062Z,1.1
2017-01-13T08:04:53.559Z,1.05
2017-01-13T08:05:33.998Z,1.1
2017-01-13T08:06:14.461Z,1.05
2017-01-13T08:06:56.801Z,1.05
2017-01-13T08:07:37.270Z,0.99
2017-01-13T08:08:17.719Z,0.99
2017-01-13T08:08:58.197Z,0.96
2017-01-13T08:09:38.692Z,0.94
2017-01-13T08:10:19.187Z,0.98
2017-01-13T08:10:59.658Z,0.99
2017-01-13T08:11:40.165Z,0.87
2017-01-13T08:12:20.656Z,0.92
2017-01-13T08:13:01.184Z,1.01
2017-01-13T08:13:41.656Z,0.91
2017-01-13T08:14:22.138Z,0.88
2017-01-13T08:15:02.631Z,0.84
2017-01-13T08:15:43.101Z,0.78
2017-01-13T08:16:23.582Z,0.78
2017-01-13T08:17:04.355Z,0.78
2017-01-13T08:17:46.565Z,0.8
2017-01-13T08:18:27.042Z,0.65
2017-01-13T08:19:07.527Z,0.73
2017-01-13T08:20:56.831Z,0.69
2017-01-13T08:21:39.621Z,0.74
2017-01-13T08:22:21.852Z,0.73
2017-01-13T08:23:02.336Z,0.7
2017-01-13T08:23:42.813Z,0.77
2017-01-13T08:24:23.274Z,0.69
2017-01-13T08:25:03.735Z,0.76
2017-01-13T08:25:44.331Z,0.7
2017-01-13T08:26:24.810Z,0.66
2017-01-13T08:27:05.375Z,0.62
2017-01-13T08:27:45.780Z,0.66
2017-01-13T08:28:26.226Z,0.59
2017-01-13T08:29:06.709Z,0.68
2017-01-13T08:29:47.179Z,0.66
2017-01-13T08:30:27.676Z,0.62
2017-01-13T08:31:08.190Z,0.63
2017-01-13T08:31:48.701Z,0.62
2017-01-13T08:32:29.316Z,0.56
2017-01-13T08:33:09.708Z,0.6
2017-01-13T08:33:50.161Z,0.55
2017-01-13T08:34:30.634Z,0.63
2017-01-13T08:35:11.106Z,0.63
2017-01-13T08:35:51.631Z,0.49
2017-01-13T08:36:32.118Z,0.62
2017-01-13T08:37:12.584Z,0.6
2017-01-13T08:37:53.069Z,0.6
2017-01-13T08:38:33.558Z,0.5
2017-01-13T08:39:14.058Z,0.59
2017-01-13T08:39:54.544Z,0.5
2017-01-13T08:40:35.030Z,0.58
2017-01-13T08:41:15.537Z,0.59
2017-01-13T08:41:56.044Z,0.56
2017-01-13T08:42:36.519Z,0.55
2017-01-13T08:43:17.022Z,0.63
2017-01-13T08:43:57.477Z,0.59
2017-01-13T08:44:37.958Z,0.59
2017-01-13T08:45:18.439Z,0.58
2017-01-13T08:46:00.179Z,0.56
2017-01-13T08:46:40.641Z,0.52
2017-01-13T08:47:21.093Z,0.56
2017-01-13T08:48:01.568Z,0.56
2017-01-13T08:48:42.064Z,0.59
2017-01-13T08:49:22.506Z,0.62
2017-01-13T08:50:03.005Z,0.59
2017-01-13T08:50:43.534Z,0.58
2017-01-13T08:51:24.012Z,0.55
2017-01-13T08:52:04.750Z,0.62
2017-01-13T08:52:45.540Z,0.6
2017-01-13T08:53:26.041Z,0.59
2017-01-13T08:54:06.726Z,0.58
2017-01-13T08:54:49.935Z,0.6
2017-01-13T08:55:30.325Z,0.56
2017-01-13T08:56:10.803Z,0.62
2017-01-13T08:56:51.435Z,0.66
2017-01-13T08:57:31.951Z,0.68
2017-01-13T08:58:12.386Z,0.63
2017-01-13T08:58:52.939Z,0.62
2017-01-13T08:59:36.126Z,0.62
2017-01-13T09:00:19.411Z,0.66
2017-01-13T09:00:59.958Z,0.68
2017-01-13T09:03:15.219Z,0.65
2017-01-13T09:03:55.896Z,0.65
2017-01-13T09:04:38.454Z,0.6
2017-01-13T09:05:18.988Z,0.59
2017-01-13T09:05:59.450Z,0.56
2017-01-13T09:06:39.979Z,0.66
2017-01-13T09:07:20.468Z,0.66
2017-01-13T09:08:01.455Z,0.7
2017-01-13T09:08:41.913Z,0.7
2017-01-13T09:09:22.460Z,0.63
2017-01-13T09:10:02.936Z,0.73
2017-01-13T09:10:43.433Z,0.73
2017-01-13T09:11:24.452Z,0.59
2017-01-13T09:12:04.967Z,0.74
2017-01-13T09:12:45.541Z,0.76
2017-01-13T09:13:26.002Z,0.7
2017-01-13T09:14:06.469Z,0.62
2017-01-13T09:14:47.041Z,0.62
2017-01-13T09:15:27.532Z,0.63
2017-01-13T09:16:08.000Z,0.65
2017-01-13T09:16:48.552Z,0.78
2017-01-13T09:18:48.000Z,0.62
2017-01-13T09:19:30.205Z,0.7
2017-01-13T09:21:22.189Z,0.68
2017-01-13T09:22:08.054Z,0.69
2017-01-13T09:22:48.226Z,0.62
2017-01-13T09:23:28.800Z,0.58
2017-01-13T09:24:09.275Z,0.59
2017-01-13T09:24:49.788Z,0.63